Time;durP1;ratioP1;P1;durP2;ratioP2;P2;SDS_P1;SDS_P2;PMS_P1;PMS_P2;Temp;Humidity;BMP_temperature;BMP_pressure;BME280_temperature;BME280_humidity;BME280_pressure;Samples;Min_cycle;Max_cycle;Signal;HPM_P1;HPM_P2
2021/06/27 00:01:24;;;;;;;11.73;10.52;;;20.60;69.50;;;;;;5052414;28;20136;-78
2021/06/27 00:03:51;;;;;;;12.25;10.95;;;20.60;69.70;;;;;;5052400;28;20025;-78
2021/06/27 00:06:17;;;;;;;11.80;10.60;;;20.50;69.70;;;;;;5052246;28;20508;-75
2021/06/27 00:08:44;;;;;;;11.52;10.32;;;20.50;69.80;;;;;;5053735;28;20021;-77
2021/06/27 00:11:11;;;;;;;12.13;10.93;;;20.50;69.90;;;;;;5052388;28;20013;-76
2021/06/27 00:13:39;;;;;;;12.13;10.82;;;20.40;69.90;;;;;;5052400;28;20455;-77
2021/06/27 00:16:06;;;;;;;12.63;10.57;;;20.40;70.00;;;;;;5052273;28;20082;-77
2021/06/27 00:18:33;;;;;;;13.00;11.25;;;20.40;70.10;;;;;;5052252;28;20021;-77
2021/06/27 00:21:01;;;;;;;12.77;11.48;;;20.40;70.20;;;;;;5053574;28;20476;-77
2021/06/27 00:23:33;;;;;;;12.20;10.90;;;20.40;70.30;;;;;;5052190;28;20503;-77
2021/06/27 00:26:00;;;;;;;13.95;11.10;;;20.30;70.30;;;;;;5052256;28;20048;-77
2021/06/27 00:28:26;;;;;;;11.75;10.55;;;20.30;70.40;;;;;;5052181;28;20025;-77
2021/06/27 00:30:54;;;;;;;12.48;10.82;;;20.30;70.40;;;;;;5053460;28;20527;-76
2021/06/27 00:33:21;;;;;;;13.25;11.50;;;20.30;70.70;;;;;;5052229;28;20025;-77
2021/06/27 00:35:47;;;;;;;13.05;11.65;;;20.30;70.80;;;;;;5051914;28;20033;-76
2021/06/27 00:38:13;;;;;;;12.95;11.60;;;20.20;71.00;;;;;;5052211;28;20063;-77
2021/06/27 00:40:39;;;;;;;14.88;12.18;;;20.30;71.10;;;;;;5053184;28;20029;-76
2021/06/27 00:43:06;;;;;;;12.40;11.10;;;20.20;71.10;;;;;;5052003;28;20028;-76
2021/06/27 00:45:32;;;;;;;13.57;12.07;;;20.20;71.10;;;;;;5053083;28;20477;-76
2021/06/27 00:48:00;;;;;;;12.93;11.60;;;20.20;71.20;;;;;;5051917;28;20484;-76
2021/06/27 00:50:32;;;;;;;12.80;11.02;;;20.20;71.20;;;;;;5052042;28;20154;-76
2021/06/27 00:52:59;;;;;;;12.05;10.50;;;20.20;71.30;;;;;;5051897;28;20025;-75
2021/06/27 00:55:25;;;;;;;12.70;11.40;;;20.20;71.30;;;;;;5051823;28;20036;-76
2021/06/27 00:57:52;;;;;;;11.05;9.88;;;20.20;71.30;;;;;;5051707;28;20033;-76
2021/06/27 01:00:25;;;;;;;11.77;10.57;;;20.20;71.40;;;;;;5051341;28;20553;-76
2021/06/27 01:02:51;;;;;;;11.50;10.30;;;20.20;71.60;;;;;;5052674;28;20020;-77
2021/06/27 01:05:21;;;;;;;12.38;10.82;;;20.20;71.50;;;;;;5051640;28;20024;-75
2021/06/27 01:07:47;;;;;;;12.85;11.40;;;20.20;71.60;;;;;;5053067;28;20060;-75
2021/06/27 01:10:13;;;;;;;12.90;11.50;;;20.20;71.60;;;;;;5050458;28;20098;-76
2021/06/27 01:12:39;;;;;;;13.20;11.90;;;20.20;71.70;;;;;;5050734;28;20041;-77
2021/06/27 01:15:06;;;;;;;13.38;11.98;;;20.20;71.70;;;;;;5050627;28;20056;-77
2021/06/27 01:17:32;;;;;;;13.73;11.48;;;20.20;71.80;;;;;;5050517;28;20111;-77
2021/06/27 01:19:58;;;;;;;12.75;11.48;;;20.20;71.80;;;;;;5050476;28;20124;-76
2021/06/27 01:22:27;;;;;;;13.40;11.60;;;20.20;71.90;;;;;;5050642;28;20033;-77
2021/06/27 01:24:53;;;;;;;16.70;12.75;;;20.20;71.90;;;;;;5050547;28;20159;-77
2021/06/27 01:27:20;;;;;;;16.42;13.65;;;20.20;72.10;;;;;;5050224;28;20471;-77
2021/06/27 01:29:45;;;;;;;16.67;14.38;;;20.20;72.40;;;;;;5050432;28;20017;-77
2021/06/27 01:32:13;;;;;;;15.13;13.32;;;20.10;72.60;;;;;;5050462;28;20086;-75
2021/06/27 01:34:40;;;;;;;15.73;13.80;;;20.00;72.80;;;;;;5050300;28;20045;-77
2021/06/27 01:37:06;;;;;;;16.80;13.77;;;20.00;73.10;;;;;;5050393;28;20033;-76
2021/06/27 01:39:36;;;;;;;17.30;15.15;;;19.90;73.20;;;;;;5050113;28;20032;-77
2021/06/27 01:42:02;;;;;;;17.42;14.32;;;19.90;73.50;;;;;;5050387;28;20044;-79
2021/06/27 01:44:28;;;;;;;16.95;15.15;;;19.80;73.60;;;;;;5050435;28;20029;-75
2021/06/27 01:46:57;;;;;;;18.25;14.32;;;19.80;73.70;;;;;;5050454;28;20032;-76
2021/06/27 01:49:22;;;;;;;16.98;14.48;;;19.80;74.00;;;;;;5052345;28;20086;-76
2021/06/27 01:51:48;;;;;;;17.05;14.30;;;19.80;74.20;;;;;;5052421;28;20448;-77
2021/06/27 01:54:14;;;;;;;19.42;15.93;;;19.70;74.30;;;;;;5051146;28;20051;-77
2021/06/27 01:56:40;;;;;;;15.15;13.55;;;19.70;74.60;;;;;;5052272;28;20029;-78
2021/06/27 01:59:05;;;;;;;16.92;14.75;;;19.70;74.60;;;;;;5051025;28;20032;-76
2021/06/27 02:01:38;;;;;;;16.02;13.93;;;19.70;74.70;;;;;;5050778;28;20430;-77
2021/06/27 02:04:05;;;;;;;16.02;13.38;;;19.60;74.80;;;;;;5050982;28;20079;-77
2021/06/27 02:06:35;;;;;;;14.98;13.45;;;19.60;74.80;;;;;;5052134;28;20079;-77
2021/06/27 02:09:03;;;;;;;16.10;13.55;;;19.60;74.90;;;;;;5050923;28;20020;-77
2021/06/27 02:11:28;;;;;;;15.00;13.27;;;19.60;75.00;;;;;;5050866;28;20104;-77
2021/06/27 02:13:56;;;;;;;16.33;14.60;;;19.50;75.10;;;;;;5052849;28;20056;-76
2021/06/27 02:16:21;;;;;;;16.67;14.07;;;19.50;75.20;;;;;;5055992;28;20025;-76
2021/06/27 02:18:49;;;;;;;16.38;14.60;;;19.50;75.30;;;;;;5056072;28;20086;-76
2021/06/27 02:21:27;;;;;;;18.50;15.35;;;19.40;75.40;;;;;;5054770;28;20036;-76
2021/06/27 02:23:53;;;;;;;17.75;15.27;;;19.40;75.70;;;;;;5054459;28;20100;-77
2021/06/27 02:26:20;;;;;;;18.60;16.60;;;19.40;75.70;;;;;;5055708;28;20078;-77
2021/06/27 02:28:46;;;;;;;18.60;15.90;;;19.30;75.80;;;;;;5055670;28;20021;-77
2021/06/27 02:31:12;;;;;;;18.17;15.45;;;19.40;76.00;;;;;;5054181;28;20036;-77
2021/06/27 02:33:38;;;;;;;17.95;15.10;;;19.30;75.90;;;;;;5054261;28;20017;-77
2021/06/27 02:36:08;;;;;;;18.23;15.07;;;19.30;76.00;;;;;;5054216;28;20504;-77
2021/06/27 02:38:34;;;;;;;17.30;14.90;;;19.30;76.10;;;;;;5055448;28;20021;-76
2021/06/27 02:41:00;;;;;;;18.60;15.90;;;19.30;76.00;;;;;;5055497;28;20499;-77
2021/06/27 02:43:26;;;;;;;15.95;14.18;;;19.30;76.10;;;;;;5054124;28;20100;-77
2021/06/27 02:45:52;;;;;;;16.85;14.52;;;19.40;76.10;;;;;;5055379;28;20025;-76
2021/06/27 02:48:18;;;;;;;20.02;16.55;;;19.40;76.10;;;;;;5054472;28;20032;-76
2021/06/27 02:50:44;;;;;;;19.67;15.95;;;19.40;76.30;;;;;;5054024;28;20013;-77
2021/06/27 02:53:11;;;;;;;16.15;14.45;;;19.30;76.40;;;;;;5055192;28;20516;-76
2021/06/27 02:55:37;;;;;;;18.55;14.45;;;19.30;76.40;;;;;;5053919;28;20021;-76
2021/06/27 02:58:03;;;;;;;17.02;14.85;;;19.30;76.40;;;;;;5053855;28;20021;-77
2021/06/27 03:00:29;;;;;;;17.45;15.30;;;19.30;76.40;;;;;;5053555;28;20458;-77
2021/06/27 03:02:59;;;;;;;17.23;14.80;;;19.20;76.50;;;;;;5053798;28;20021;-77
2021/06/27 03:05:25;;;;;;;18.38;15.45;;;19.20;76.70;;;;;;5054933;28;20480;-76
2021/06/27 03:11:13;;;;;;;16.35;13.88;;;19.20;76.80;;;;;;5055222;28;20404;-77
2021/06/27 03:13:41;;;;;;;16.65;14.18;;;19.20;76.70;;;;;;5054874;28;20096;-76
2021/06/27 03:16:09;;;;;;;19.13;15.63;;;19.20;76.80;;;;;;5053543;28;20017;-77
2021/06/27 03:18:35;;;;;;;18.92;15.88;;;19.10;76.80;;;;;;5053474;28;20099;-76
2021/06/27 03:21:02;;;;;;;19.92;17.00;;;19.10;77.00;;;;;;5053395;28;20481;-76
2021/06/27 03:23:27;;;;;;;18.42;15.25;;;19.10;77.20;;;;;;5053324;28;20025;-76
2021/06/27 03:25:54;;;;;;;19.38;15.50;;;19.00;77.30;;;;;;5054020;28;20028;-75
2021/06/27 03:28:21;;;;;;;18.38;15.90;;;19.00;77.30;;;;;;5053546;28;20020;-76
2021/06/27 03:30:46;;;;;;;20.52;16.30;;;19.00;77.40;;;;;;5054496;28;20393;-76
2021/06/27 03:33:12;;;;;;;19.67;14.93;;;19.00;77.50;;;;;;5053243;28;20024;-77
2021/06/27 03:35:38;;;;;;;21.52;17.30;;;19.00;77.50;;;;;;5053123;28;20040;-76
2021/06/27 03:38:11;;;;;;;18.50;16.00;;;19.00;77.60;;;;;;5053164;28;20393;-76
2021/06/27 03:40:38;;;;;;;19.20;15.75;;;19.00;77.60;;;;;;5053020;28;20028;-76
2021/06/27 03:43:03;;;;;;;17.98;15.32;;;19.00;77.60;;;;;;5054238;28;20500;-76
2021/06/27 03:45:29;;;;;;;18.20;15.40;;;19.00;77.70;;;;;;5052935;28;20021;-77
2021/06/27 03:47:55;;;;;;;16.60;14.27;;;19.00;77.60;;;;;;5053002;28;20163;-76
2021/06/27 03:50:21;;;;;;;16.65;14.18;;;19.00;77.70;;;;;;5052860;28;20025;-76
2021/06/27 03:52:47;;;;;;;18.08;15.82;;;19.00;77.70;;;;;;5054570;28;20035;-76
2021/06/27 03:55:14;;;;;;;17.63;15.25;;;19.00;77.70;;;;;;5052710;28;20049;-76
2021/06/27 03:57:40;;;;;;;16.27;13.93;;;19.00;77.70;;;;;;5052863;28;20033;-76
2021/06/27 04:00:08;;;;;;;17.42;15.05;;;19.00;77.70;;;;;;5052359;28;20048;-74
2021/06/27 04:02:34;;;;;;;15.50;13.82;;;19.00;77.60;;;;;;5052461;28;20021;-76
2021/06/27 04:04:59;;;;;;;17.20;14.68;;;19.00;77.50;;;;;;5052638;28;20461;-76
2021/06/27 04:07:25;;;;;;;16.33;14.05;;;19.10;77.50;;;;;;5052555;28;20475;-75
2021/06/27 04:09:51;;;;;;;15.55;13.65;;;19.10;77.40;;;;;;5052808;28;20416;-78
2021/06/27 04:12:16;;;;;;;16.42;14.52;;;19.10;77.40;;;;;;5053897;28;20032;-78
2021/06/27 04:14:42;;;;;;;15.52;13.85;;;19.10;77.30;;;;;;5053782;28;20021;-78
2021/06/27 04:17:09;;;;;;;17.10;14.55;;;19.20;77.30;;;;;;5052328;28;20031;-78
2021/06/27 04:19:35;;;;;;;15.07;12.40;;;19.20;77.20;;;;;;5053646;28;20116;-78
2021/06/27 04:22:00;;;;;;;15.40;12.93;;;19.20;77.20;;;;;;5053792;28;20049;-78
2021/06/27 04:24:26;;;;;;;15.68;13.43;;;19.20;77.10;;;;;;5052187;28;20494;-78
2021/06/27 04:26:52;;;;;;;16.33;13.10;;;19.20;77.00;;;;;;5052268;28;20236;-78
2021/06/27 04:29:17;;;;;;;15.25;13.40;;;19.30;77.00;;;;;;5053481;28;20021;-77
2021/06/27 04:31:44;;;;;;;14.85;12.95;;;19.30;76.90;;;;;;5053497;28;20024;-77
2021/06/27 04:34:11;;;;;;;14.68;13.18;;;19.30;76.90;;;;;;5051985;28;20032;-78
2021/06/27 04:36:37;;;;;;;13.80;12.30;;;19.40;76.80;;;;;;5051266;28;20067;-77
2021/06/27 04:39:06;;;;;;;13.57;12.15;;;19.40;76.70;;;;;;5053137;28;20431;-77
2021/06/27 04:41:33;;;;;;;14.18;12.30;;;19.50;76.60;;;;;;5052036;28;20032;-78
2021/06/27 04:43:58;;;;;;;15.35;13.43;;;19.50;76.40;;;;;;5051925;28;20469;-77
2021/06/27 04:46:24;;;;;;;13.63;12.05;;;19.60;76.40;;;;;;5051813;28;20027;-77
2021/06/27 04:48:50;;;;;;;16.75;13.35;;;19.50;76.20;;;;;;5053193;28;20026;-78
2021/06/27 04:51:15;;;;;;;16.17;13.48;;;19.60;76.20;;;;;;5051828;28;20097;-77
2021/06/27 04:53:41;;;;;;;18.08;14.23;;;19.60;76.10;;;;;;5051730;28;20079;-76
2021/06/27 04:56:06;;;;;;;13.73;12.00;;;19.60;76.00;;;;;;5052965;28;20104;-77
2021/06/27 04:58:32;;;;;;;13.88;11.68;;;19.70;76.00;;;;;;5051837;28;20493;-77
2021/06/27 05:00:58;;;;;;;14.02;12.50;;;19.80;75.90;;;;;;5052772;28;20045;-76
2021/06/27 05:03:23;;;;;;;14.57;12.25;;;19.90;75.80;;;;;;5052893;28;20495;-75
2021/06/27 05:05:49;;;;;;;13.80;11.57;;;19.90;75.60;;;;;;5051591;28;20071;-76
2021/06/27 05:08:14;;;;;;;14.23;12.38;;;19.90;75.40;;;;;;5052960;28;20028;-77
2021/06/27 05:10:40;;;;;;;13.98;12.07;;;19.90;75.20;;;;;;5053174;28;20032;-77
2021/06/27 05:13:06;;;;;;;14.45;11.65;;;20.00;75.10;;;;;;5053018;28;20492;-76
2021/06/27 05:15:32;;;;;;;12.90;11.27;;;20.00;75.00;;;;;;5051545;28;20030;-76
2021/06/27 05:17:58;;;;;;;13.98;11.38;;;20.10;74.90;;;;;;5051400;28;20341;-76
2021/06/27 05:20:24;;;;;;;14.35;11.30;;;20.10;74.80;;;;;;5051639;28;20438;-76
2021/06/27 05:22:49;;;;;;;12.07;10.88;;;20.10;74.70;;;;;;5052639;28;20025;-76
2021/06/27 05:25:15;;;;;;;11.35;10.15;;;20.20;74.60;;;;;;5051325;28;20028;-75
2021/06/27 05:27:41;;;;;;;11.52;9.98;;;20.20;74.50;;;;;;5051372;28;20055;-76
2021/06/27 05:30:07;;;;;;;11.20;10.00;;;20.20;74.40;;;;;;5051255;28;20025;-77
2021/06/27 05:32:33;;;;;;;10.48;9.38;;;20.30;74.30;;;;;;5052605;28;20025;-76
2021/06/27 05:34:59;;;;;;;10.55;9.38;;;20.30;74.10;;;;;;5051638;28;20116;-77
2021/06/27 05:37:25;;;;;;;9.52;8.25;;;20.40;74.00;;;;;;5051222;28;20443;-75
2021/06/27 05:39:50;;;;;;;10.77;9.07;;;20.40;73.80;;;;;;5052759;28;20036;-75
2021/06/27 05:42:18;;;;;;;10.98;9.63;;;20.50;73.70;;;;;;5052607;28;20029;-75
2021/06/27 05:44:44;;;;;;;11.93;9.90;;;20.50;73.50;;;;;;5051203;28;20013;-76
2021/06/27 05:47:10;;;;;;;10.60;9.50;;;20.50;73.30;;;;;;5052362;28;20032;-76
2021/06/27 05:49:36;;;;;;;10.32;9.27;;;20.60;73.30;;;;;;5054331;28;20040;-77
2021/06/27 05:52:01;;;;;;;12.65;11.05;;;20.60;73.20;;;;;;5056427;28;20045;-77
2021/06/27 05:54:27;;;;;;;11.02;9.50;;;20.60;73.00;;;;;;5055152;28;20025;-76
2021/06/27 05:56:52;;;;;;;11.90;10.45;;;20.60;72.90;;;;;;5056206;28;20066;-76
2021/06/27 05:59:18;;;;;;;11.45;9.95;;;20.70;73.50;;;;;;5054812;28;20048;-77
2021/06/27 06:01:43;;;;;;;11.68;10.48;;;20.70;72.80;;;;;;5054728;28;20040;-77
2021/06/27 06:04:09;;;;;;;11.20;10.10;;;20.70;72.70;;;;;;5054975;28;20025;-77
2021/06/27 06:06:35;;;;;;;12.18;10.88;;;20.80;72.70;;;;;;5054851;28;20123;-77
2021/06/27 06:09:00;;;;;;;12.18;9.90;;;20.80;72.50;;;;;;5055071;28;20024;-77
2021/06/27 06:11:27;;;;;;;11.20;10.02;;;20.90;72.50;;;;;;5056062;28;20032;-77
2021/06/27 06:13:52;;;;;;;10.35;8.82;;;20.80;72.30;;;;;;5054548;28;20124;-77
2021/06/27 06:16:18;;;;;;;9.77;8.77;;;20.90;72.30;;;;;;5054981;28;20060;-77
2021/06/27 06:18:45;;;;;;;10.68;9.60;;;21.00;72.20;;;;;;5055973;28;20094;-76
2021/06/27 06:21:15;;;;;;;10.25;8.95;;;21.00;72.10;;;;;;5054523;28;20029;-77
2021/06/27 06:23:41;;;;;;;10.70;9.55;;;21.10;72.00;;;;;;5055845;28;20029;-76
2021/06/27 06:26:07;;;;;;;11.77;10.35;;;21.10;72.50;;;;;;5054432;28;20025;-76
2021/06/27 06:28:34;;;;;;;10.50;9.13;;;21.20;71.90;;;;;;5054529;28;20017;-77
2021/06/27 06:31:00;;;;;;;10.32;8.93;;;21.20;71.70;;;;;;5055640;28;20079;-77
2021/06/27 06:33:26;;;;;;;10.75;9.52;;;21.20;71.60;;;;;;5054252;28;20063;-77
2021/06/27 06:35:52;;;;;;;10.43;9.32;;;21.20;71.50;;;;;;5054300;28;20032;-77
2021/06/27 06:38:18;;;;;;;10.20;9.20;;;21.20;71.40;;;;;;5054612;28;20137;-77
2021/06/27 06:40:43;;;;;;;10.10;9.00;;;21.30;71.40;;;;;;5054021;28;20032;-77
2021/06/27 06:43:09;;;;;;;10.63;9.52;;;21.30;71.40;;;;;;5055460;28;20507;-77
2021/06/27 06:45:35;;;;;;;10.55;9.38;;;21.30;71.30;;;;;;5054102;28;20029;-77
2021/06/27 06:48:01;;;;;;;12.38;10.27;;;21.30;71.30;;;;;;5054425;28;20040;-77
2021/06/27 06:50:27;;;;;;;11.13;9.93;;;21.30;71.20;;;;;;5055463;28;20036;-77
2021/06/27 06:52:53;;;;;;;10.32;9.25;;;21.40;71.10;;;;;;5055212;28;20025;-77
2021/06/27 06:55:21;;;;;;;12.45;10.63;;;21.50;71.00;;;;;;5053926;28;20025;-77
2021/06/27 06:57:47;;;;;;;12.05;10.35;;;21.50;70.90;;;;;;5055205;28;20025;-77
2021/06/27 07:00:14;;;;;;;10.63;9.52;;;21.60;70.80;;;;;;5054046;28;20037;-77
2021/06/27 07:02:39;;;;;;;10.13;9.07;;;21.60;70.70;;;;;;5053909;28;20029;-77
2021/06/27 07:05:08;;;;;;;10.70;9.55;;;21.70;70.60;;;;;;5055008;28;20086;-77
2021/06/27 07:07:35;;;;;;;10.75;9.65;;;21.70;70.40;;;;;;5053789;28;20120;-77
2021/06/27 07:10:01;;;;;;;10.70;9.60;;;21.80;70.30;;;;;;5055159;28;20497;-78
2021/06/27 07:12:27;;;;;;;11.07;9.38;;;21.90;70.20;;;;;;5053572;28;20029;-77
2021/06/27 07:14:53;;;;;;;12.93;10.65;;;22.00;70.00;;;;;;5054933;28;20082;-77
2021/06/27 07:17:19;;;;;;;10.00;9.00;;;22.10;69.80;;;;;;5054783;28;20104;-77
2021/06/27 07:19:44;;;;;;;12.02;10.45;;;22.10;69.70;;;;;;5053360;28;20023;-76
2021/06/27 07:22:10;;;;;;;10.90;9.57;;;22.20;69.60;;;;;;5054813;28;20492;-77
2021/06/27 07:24:37;;;;;;;11.13;9.90;;;22.20;69.40;;;;;;5054618;28;20025;-77
2021/06/27 07:27:04;;;;;;;10.98;9.70;;;22.30;69.30;;;;;;5053393;28;20025;-77
2021/06/27 07:29:29;;;;;;;9.40;8.40;;;22.40;69.20;;;;;;5054568;28;20033;-77
2021/06/27 07:31:55;;;;;;;10.38;9.10;;;22.40;69.10;;;;;;5054524;28;20104;-77
2021/06/27 07:34:21;;;;;;;9.57;8.60;;;22.50;69.00;;;;;;5054549;28;20037;-77
2021/06/27 07:36:47;;;;;;;10.18;9.07;;;22.60;68.90;;;;;;5054427;28;20577;-76
2021/06/27 07:39:13;;;;;;;10.57;9.48;;;22.60;68.60;;;;;;5053022;28;20032;-77
2021/06/27 07:41:39;;;;;;;11.68;9.77;;;22.70;68.60;;;;;;5054265;28;20021;-76
2021/06/27 07:44:05;;;;;;;10.07;8.25;;;22.70;68.40;;;;;;5052957;28;20365;-77
2021/06/27 07:46:30;;;;;;;12.93;10.02;;;22.80;68.30;;;;;;5053093;28;20059;-77
2021/06/27 07:48:56;;;;;;;9.73;8.73;;;22.80;68.00;;;;;;5054063;28;20033;-77
2021/06/27 07:51:21;;;;;;;9.40;8.40;;;22.90;68.00;;;;;;5052840;28;20057;-77
2021/06/27 07:53:47;;;;;;;11.00;9.90;;;22.90;67.90;;;;;;5053216;28;20029;-77
2021/06/27 07:56:13;;;;;;;9.65;8.65;;;23.00;67.90;;;;;;5054057;28;20481;-76
2021/06/27 07:58:38;;;;;;;9.15;8.20;;;23.00;67.80;;;;;;5052604;28;20027;-76
2021/06/27 08:01:04;;;;;;;10.38;9.30;;;23.10;67.60;;;;;;5052373;28;20041;-77
2021/06/27 08:03:30;;;;;;;9.50;8.50;;;23.10;67.50;;;;;;5053944;28;20087;-77
2021/06/27 08:05:55;;;;;;;9.05;8.15;;;23.10;67.40;;;;;;5052580;28;20021;-77
2021/06/27 08:08:21;;;;;;;10.63;9.05;;;23.20;67.30;;;;;;5052609;28;20546;-76
2021/06/27 08:10:47;;;;;;;9.02;8.02;;;23.20;67.20;;;;;;5055121;28;20029;-76
2021/06/27 08:13:13;;;;;;;8.68;7.80;;;23.20;67.00;;;;;;5053933;28;20075;-77
2021/06/27 08:15:38;;;;;;;8.90;8.00;;;23.30;67.00;;;;;;5055575;28;20104;-76
2021/06/27 08:18:04;;;;;;;9.32;7.65;;;23.40;67.00;;;;;;5053976;28;20036;-76
2021/06/27 08:20:30;;;;;;;10.07;7.50;;;23.40;67.00;;;;;;5054233;28;20087;-76
2021/06/27 08:22:56;;;;;;;9.43;7.28;;;23.50;66.90;;;;;;5055012;28;20024;-77
2021/06/27 08:25:23;;;;;;;8.77;7.88;;;23.60;66.90;;;;;;5053554;28;20025;-76
2021/06/27 08:27:50;;;;;;;9.00;8.07;;;23.70;66.80;;;;;;5054412;28;20021;-77
2021/06/27 08:30:17;;;;;;;16.13;8.80;;;23.80;66.50;;;;;;5054237;28;20047;-77
2021/06/27 08:32:44;;;;;;;7.78;6.90;;;23.80;66.40;;;;;;5053001;28;20495;-77
2021/06/27 08:35:16;;;;;;;8.68;7.88;;;23.80;66.40;;;;;;5054521;28;20033;-76
2021/06/27 08:37:42;;;;;;;8.57;7.78;;;23.90;66.30;;;;;;5054109;28;20037;-76
2021/06/27 08:40:10;;;;;;;7.80;7.00;;;23.90;66.10;;;;;;5052422;28;20032;-76
2021/06/27 08:42:36;;;;;;;7.95;7.22;;;23.90;65.90;;;;;;5053248;28;20028;-77
2021/06/27 08:45:02;;;;;;;8.45;7.65;;;24.00;65.80;;;;;;5053407;28;20029;-77
2021/06/27 08:47:29;;;;;;;7.10;6.40;;;24.00;66.40;;;;;;5053107;28;20400;-76
2021/06/27 08:49:55;;;;;;;8.07;7.28;;;24.00;65.70;;;;;;5051957;28;20421;-77
2021/06/27 08:52:21;;;;;;;7.45;6.38;;;24.10;65.60;;;;;;5052974;28;20060;-76
2021/06/27 08:54:48;;;;;;;7.35;6.15;;;24.10;65.60;;;;;;5053117;28;20392;-77
2021/06/27 08:57:15;;;;;;;7.30;6.57;;;24.20;65.60;;;;;;5052765;28;20037;-76
2021/06/27 08:59:42;;;;;;;7.60;6.90;;;24.20;65.50;;;;;;5051325;28;20041;-77
2021/06/27 09:02:09;;;;;;;9.05;7.22;;;24.30;65.40;;;;;;5051440;28;20119;-77
2021/06/27 09:04:41;;;;;;;6.97;6.28;;;24.30;65.00;;;;;;5052753;28;20068;-77
2021/06/27 09:07:28;;;;;;;6.18;5.57;;;24.30;65.00;;;;;;5051576;28;20029;-75
2021/06/27 09:10:07;;;;;;;6.63;5.90;;;24.30;65.10;;;;;;5051424;28;20029;-74
2021/06/27 09:12:55;;;;;;;6.63;6.03;;;24.30;64.90;;;;;;5051943;28;20032;-74
2021/06/27 09:15:35;;;;;;;6.43;5.82;;;24.30;64.80;;;;;;5051593;28;20063;-75
2021/06/27 09:18:06;;;;;;;7.60;6.55;;;24.30;64.90;;;;;;5052720;28;20036;-75
2021/06/27 09:20:32;;;;;;;7.13;6.43;;;24.30;64.80;;;;;;5051398;28;20389;-74
2021/06/27 09:22:59;;;;;;;7.30;6.60;;;24.40;64.80;;;;;;5050622;28;20032;-74
2021/06/27 09:25:26;;;;;;;6.72;6.03;;;24.40;64.80;;;;;;5051348;28;20029;-73
2021/06/27 09:28:13;;;;;;;9.05;6.63;;;24.40;65.40;;;;;;5052584;28;20033;-75
2021/06/27 09:30:53;;;;;;;7.15;6.45;;;24.40;64.60;;;;;;5050969;28;20026;-75
2021/06/27 09:33:22;;;;;;;8.70;6.50;;;24.50;64.50;;;;;;5051279;28;20031;-74
2021/06/27 09:36:05;;;;;;;7.13;6.40;;;24.50;64.40;;;;;;5050998;28;20029;-74
2021/06/27 09:38:49;;;;;;;7.97;6.17;;;24.60;64.30;;;;;;5051825;28;20025;-77
2021/06/27 09:41:23;;;;;;;7.43;6.18;;;24.70;64.30;;;;;;5052535;28;20445;-74
2021/06/27 09:44:03;;;;;;;6.88;6.18;;;24.70;64.30;;;;;;5051383;28;20032;-73
2021/06/27 09:46:36;;;;;;;9.80;6.65;;;24.80;64.20;;;;;;5051355;28;20029;-74
2021/06/27 09:49:06;;;;;;;7.45;6.10;;;24.90;64.00;;;;;;5052422;28;20082;-74
2021/06/27 09:51:34;;;;;;;7.97;6.68;;;24.90;63.60;;;;;;5052398;28;20395;-74
2021/06/27 09:54:00;;;;;;;7.65;6.95;;;24.90;63.50;;;;;;5052446;28;20029;-73
2021/06/27 09:56:27;;;;;;;7.28;6.57;;;25.00;63.40;;;;;;5051525;28;20043;-74
2021/06/27 09:59:03;;;;;;;7.78;7.03;;;25.00;63.40;;;;;;5051002;28;20025;-75
2021/06/27 10:01:30;;;;;;;7.15;6.45;;;25.10;63.40;;;;;;5050486;28;20037;-73
2021/06/27 10:03:58;;;;;;;6.88;6.03;;;25.10;63.40;;;;;;5052089;28;20029;-73
2021/06/27 10:06:31;;;;;;;6.43;5.68;;;25.10;63.30;;;;;;5050826;28;20362;-74
2021/06/27 10:09:22;;;;;;;5.93;5.43;;;25.20;63.20;;;;;;5051979;28;20032;-74
2021/06/27 10:12:04;;;;;;;7.50;5.68;;;25.20;62.90;;;;;;5050778;28;20070;-74
2021/06/27 10:14:33;;;;;;;6.03;5.50;;;25.30;62.70;;;;;;5050743;28;20477;-73
2021/06/27 10:17:00;;;;;;;5.85;5.20;;;25.30;62.70;;;;;;5051852;28;20120;-74
2021/06/27 10:19:27;;;;;;;7.35;6.50;;;25.40;62.60;;;;;;5046186;28;20022;-74
2021/06/27 10:21:58;;;;;;;6.43;5.82;;;25.40;62.00;;;;;;5050764;28;20465;-74
2021/06/27 10:24:24;;;;;;;5.93;5.35;;;25.40;61.90;;;;;;5050558;28;20029;-74
2021/06/27 10:26:50;;;;;;;5.60;5.10;;;25.40;61.80;;;;;;5050771;28;20045;-74
2021/06/27 10:29:20;;;;;;;5.70;5.10;;;25.40;61.70;;;;;;5051659;28;20378;-74
2021/06/27 10:31:49;;;;;;;5.32;4.82;;;25.40;61.60;;;;;;5050204;28;20099;-74
2021/06/27 10:34:15;;;;;;;5.70;5.13;;;25.50;61.70;;;;;;5050769;28;20469;-75
2021/06/27 10:36:43;;;;;;;5.13;4.68;;;25.50;61.60;;;;;;5053570;28;20546;-74
2021/06/27 10:39:14;;;;;;;5.60;5.03;;;25.60;61.50;;;;;;5055467;28;20023;-75
2021/06/27 10:42:07;;;;;;;5.97;5.47;;;25.60;61.50;;;;;;5053821;28;20025;-75
2021/06/27 10:44:38;;;;;;;6.85;6.15;;;25.60;61.10;;;;;;5052946;28;20028;-74
2021/06/27 10:47:06;;;;;;;6.13;5.53;;;25.60;61.10;;;;;;5053934;28;20121;-75
2021/06/27 10:49:32;;;;;;;5.30;4.90;;;25.60;61.20;;;;;;5053998;28;20432;-75
2021/06/27 10:52:01;;;;;;;5.32;4.85;;;25.60;61.30;;;;;;5053901;28;20539;-75
2021/06/27 10:54:35;;;;;;;5.75;5.25;;;25.60;61.30;;;;;;5053849;28;20029;-75
2021/06/27 10:57:02;;;;;;;5.70;5.22;;;25.80;61.40;;;;;;5053645;28;20028;-74
2021/06/27 10:59:39;;;;;;;5.63;5.13;;;25.80;61.20;;;;;;5054955;28;20025;-77
2021/06/27 11:02:37;;;;;;;6.65;6.00;;;25.90;60.90;;;;;;5055123;28;20080;-74
2021/06/27 11:05:29;;;;;;;6.40;5.80;;;25.90;60.50;;;;;;5053669;28;20020;-73
2021/06/27 11:07:56;;;;;;;5.82;5.32;;;26.00;60.60;;;;;;5053420;28;20020;-74
2021/06/27 11:10:21;;;;;;;6.68;5.68;;;26.10;60.20;;;;;;5053382;28;20392;-75
2021/06/27 11:12:59;;;;;;;5.53;5.03;;;26.10;59.80;;;;;;5053322;28;20083;-74
2021/06/27 11:15:30;;;;;;;5.55;4.88;;;26.20;59.60;;;;;;5053303;28;20061;-73
2021/06/27 11:17:56;;;;;;;8.10;5.80;;;26.20;59.40;;;;;;5054737;28;20074;-73
2021/06/27 11:20:24;;;;;;;5.40;4.90;;;26.30;59.20;;;;;;5053333;28;20435;-74
2021/06/27 11:22:52;;;;;;;5.57;5.07;;;26.50;59.00;;;;;;5053115;28;20516;-73
2021/06/27 11:25:37;;;;;;;5.50;5.00;;;26.60;58.60;;;;;;5053290;28;20551;-76
2021/06/27 11:28:18;;;;;;;7.38;4.97;;;26.70;58.40;;;;;;5053091;28;20138;-76
2021/06/27 11:30:49;;;;;;;5.35;4.90;;;26.80;58.30;;;;;;5053035;28;20025;-77
2021/06/27 11:33:22;;;;;;;4.35;3.95;;;26.90;58.20;;;;;;5053054;28;20051;-76
2021/06/27 11:35:55;;;;;;;4.47;4.07;;;27.00;58.20;;;;;;5053009;28;20021;-76
2021/06/27 11:38:40;;;;;;;4.63;4.22;;;27.20;58.10;;;;;;5054135;28;20271;-76
2021/06/27 11:41:06;;;;;;;4.40;4.00;;;27.30;57.30;;;;;;5054218;28;20235;-77
2021/06/27 11:43:56;;;;;;;4.82;4.38;;;27.40;57.00;;;;;;5054283;28;20028;-76
2021/06/27 11:46:34;;;;;;;4.85;4.45;;;27.50;56.40;;;;;;5052325;28;20076;-76
2021/06/27 11:49:03;;;;;;;4.82;4.43;;;27.50;56.20;;;;;;5052668;28;20325;-76
2021/06/27 11:51:42;;;;;;;4.00;3.70;;;27.60;55.80;;;;;;5052768;28;20108;-76
2021/06/27 11:54:09;;;;;;;4.35;3.95;;;27.70;55.50;;;;;;5052795;28;20033;-76
2021/06/27 11:57:04;;;;;;;5.13;4.20;;;27.70;55.10;;;;;;5052766;28;20392;-76
2021/06/27 11:59:38;;;;;;;4.25;3.85;;;27.70;54.40;;;;;;5052268;28;20059;-76
2021/06/27 12:02:29;;;;;;;4.18;3.78;;;27.80;54.30;;;;;;5052415;28;20017;-76
2021/06/27 12:04:57;;;;;;;4.03;3.72;;;27.90;54.20;;;;;;5052493;28;20112;-76
2021/06/27 12:07:31;;;;;;;4.28;3.88;;;28.00;53.80;;;;;;5052964;28;20103;-77
2021/06/27 12:10:19;;;;;;;4.93;3.80;;;28.00;53.40;;;;;;5052634;28;20052;-77
2021/06/27 12:12:48;;;;;;;4.30;3.90;;;28.10;52.70;;;;;;5052367;28;20091;-78
2021/06/27 12:15:22;;;;;;;4.18;3.88;;;28.10;52.50;;;;;;5052404;28;20025;-79
2021/06/27 12:17:48;;;;;;;3.97;3.58;;;28.10;52.20;;;;;;5052077;28;20507;-75
2021/06/27 12:20:15;;;;;;;3.95;3.65;;;28.10;52.20;;;;;;5051955;28;20033;-75
2021/06/27 12:23:08;;;;;;;4.13;3.63;;;28.10;52.10;;;;;;5052046;28;20028;-76
2021/06/27 12:25:43;;;;;;;5.05;3.50;;;28.20;51.60;;;;;;5052418;28;20040;-76
2021/06/27 12:28:41;;;;;;;4.95;3.75;;;28.30;51.80;;;;;;5049812;28;20025;-76
2021/06/27 12:31:13;;;;;;;3.88;3.58;;;28.30;51.80;;;;;;5049127;28;20057;-78
2021/06/27 12:33:44;;;;;;;3.75;3.45;;;28.30;51.70;;;;;;5051973;28;20021;-75
2021/06/27 12:36:32;;;;;;;3.75;3.40;;;28.50;51.90;;;;;;5051928;28;20170;-75
2021/06/27 12:39:03;;;;;;;4.05;3.40;;;28.60;51.80;;;;;;5049693;28;20029;-75
2021/06/27 12:41:39;;;;;;;4.00;3.60;;;28.70;51.70;;;;;;5051694;28;20069;-76
2021/06/27 12:44:10;;;;;;;4.00;3.60;;;28.80;51.00;;;;;;5051700;28;20049;-76
2021/06/27 12:46:50;;;;;;;4.00;3.70;;;28.80;50.80;;;;;;5051592;28;20106;-75